Time;durP1;ratioP1;P1;durP2;ratioP2;P2;SDS_P1;SDS_P2;PMS_P1;PMS_P2;Temp;Humidity;BMP_temperature;BMP_pressure;BME280_temperature;BME280_humidity;BME280_pressure;Samples;Min_cycle;Max_cycle;Signal;HPM_P1;HPM_P2
2024/01/12 00:02:09;;;;;;;1.30;1.30;;;;;;;-8.91;90.49;99870.31;4903083;29;20036;-92
2024/01/12 00:04:35;;;;;;;1.30;1.30;;;;;;;-8.84;90.02;99870.34;4903038;29;20041;-91
2024/01/12 00:07:00;;;;;;;1.40;1.40;;;;;;;-8.91;89.97;99871.28;4916329;29;20032;-91
2024/01/12 00:09:26;;;;;;;1.20;1.20;;;;;;;-8.89;89.43;99869.78;4918781;29;20047;-89
2024/01/12 00:11:51;;;;;;;1.30;1.30;;;;;;;-9.02;89.51;99874.19;4903555;29;20019;-92
2024/01/12 00:14:17;;;;;;;1.30;1.30;;;;;;;-8.87;89.67;99880.31;4929063;29;20517;-92
2024/01/12 00:16:47;;;;;;;1.30;1.30;;;;;;;-8.70;89.65;99877.19;4896771;29;20033;-91
2024/01/12 00:19:13;;;;;;;1.30;1.30;;;;;;;-8.82;89.32;99874.94;4931486;29;20063;-91
2024/01/12 00:21:42;;;;;;;1.20;1.20;;;;;;;-8.94;89.45;99880.31;4906486;29;20096;-92
2024/01/12 00:24:08;;;;;;;1.20;1.20;;;;;;;-9.06;89.53;99880.63;4926906;29;20135;-91
2024/01/12 00:26:36;;;;;;;1.30;1.30;;;;;;;-8.75;89.43;99883.47;4923990;29;20047;-92
2024/01/12 00:29:02;;;;;;;1.30;1.30;;;;;;;-9.22;88.50;99881.16;4893662;29;20036;-92
2024/01/12 00:31:27;;;;;;;1.30;1.30;;;;;;;-9.22;89.49;99881.16;4927805;29;20055;-92
2024/01/12 00:33:53;;;;;;;1.30;1.30;;;;;;;-9.03;89.27;99877.53;4916978;29;20043;-92
2024/01/12 00:36:19;;;;;;;1.30;1.30;;;;;;;-8.84;88.47;99880.69;4915210;29;20032;-94
2024/01/12 00:38:44;;;;;;;1.20;1.20;;;;;;;-8.93;88.46;99880.50;4910751;29;20428;-94
2024/01/12 00:41:10;;;;;;;1.30;1.30;;;;;;;-9.18;88.55;99884.31;4899812;29;20058;-93
2024/01/12 00:43:36;;;;;;;1.38;1.38;;;;;;;-9.24;88.21;99883.56;4916546;29;20071;-91
2024/01/12 00:46:02;;;;;;;1.30;1.30;;;;;;;-9.17;89.10;99881.00;4914911;29;20044;-92
2024/01/12 00:48:27;;;;;;;1.37;1.37;;;;;;;-9.27;89.24;99880.59;4914823;29;20036;-91
2024/01/12 00:50:56;;;;;;;1.33;1.33;;;;;;;-9.24;89.34;99882.66;4895442;29;20718;-92
2024/01/12 00:53:22;;;;;;;1.30;1.30;;;;;;;-9.11;88.98;99876.56;4928879;29;20028;-91
2024/01/12 00:55:48;;;;;;;1.30;1.30;;;;;;;-9.34;88.37;99883.16;4902717;29;20047;-92
2024/01/12 00:58:13;;;;;;;1.30;1.30;;;;;;;-9.34;89.04;99880.56;4912488;29;20028;-92
2024/01/12 01:00:41;;;;;;;1.30;1.30;;;;;;;-9.22;89.03;99889.84;4929572;29;20519;-92
2024/01/12 01:03:06;;;;;;;1.30;1.30;;;;;;;-9.07;89.46;99891.72;4920195;29;20036;-92
2024/01/12 01:05:32;;;;;;;1.30;1.30;;;;;;;-9.07;88.81;99885.63;4920401;29;20493;-92
2024/01/12 01:07:58;;;;;;;1.30;1.30;;;;;;;-9.31;88.71;99887.03;4907623;29;20036;-92
2024/01/12 01:10:23;;;;;;;1.40;1.40;;;;;;;-9.27;89.17;99888.34;4895197;29;20032;-92
2024/01/12 01:12:50;;;;;;;1.40;1.40;;;;;;;-9.45;89.04;99892.16;4910944;29;20031;-92
2024/01/12 01:15:15;;;;;;;1.40;1.40;;;;;;;-9.57;88.05;99894.16;4911537;29;20585;-93
2024/01/12 01:17:41;;;;;;;1.20;1.20;;;;;;;-9.55;88.73;99899.50;4897215;29;20040;-93
2024/01/12 01:20:07;;;;;;;1.35;1.35;;;;;;;-9.17;89.34;99900.75;4917125;29;20041;-92
2024/01/12 01:22:34;;;;;;;1.30;1.30;;;;;;;-9.18;88.69;99898.91;4928909;29;20070;-93
2024/01/12 01:25:01;;;;;;;1.30;1.30;;;;;;;-9.10;88.14;99899.13;4917863;29;20059;-93
2024/01/12 01:27:26;;;;;;;1.30;1.30;;;;;;;-9.03;88.86;99895.63;4912544;29;20037;-93
2024/01/12 01:29:52;;;;;;;1.40;1.40;;;;;;;-9.26;88.31;99900.53;4918187;29;20056;-92
2024/01/12 01:32:17;;;;;;;1.30;1.30;;;;;;;-9.15;88.77;99900.22;4923447;29;20052;-92
2024/01/12 01:34:43;;;;;;;1.30;1.30;;;;;;;-9.12;87.75;99898.00;4911761;29;20060;-92
2024/01/12 01:37:09;;;;;;;1.40;1.40;;;;;;;-9.35;87.74;99891.63;4918358;29;20052;-91
2024/01/12 01:39:35;;;;;;;1.20;1.20;;;;;;;-9.56;88.16;99898.56;4916426;29;20040;-92
2024/01/12 01:42:01;;;;;;;1.30;1.30;;;;;;;-9.71;88.76;99906.06;4904664;29;20110;-92
2024/01/12 01:44:27;;;;;;;1.30;1.30;;;;;;;-9.37;89.43;99906.03;4920786;29;20043;-92
2024/01/12 01:46:54;;;;;;;1.30;1.30;;;;;;;-9.15;88.73;99905.38;4913358;29;20047;-93
2024/01/12 01:49:21;;;;;;;1.20;1.20;;;;;;;-9.31;88.57;99894.78;4927246;29;20534;-92
2024/01/12 01:51:47;;;;;;;1.40;1.40;;;;;;;-9.30;88.41;99908.63;4889984;29;20064;-92
2024/01/12 01:54:13;;;;;;;1.30;1.30;;;;;;;-9.26;87.87;99903.13;4903961;29;20044;-94
2024/01/12 01:56:40;;;;;;;1.40;1.40;;;;;;;-9.43;87.75;99900.13;4917808;29;20127;-90
2024/01/12 01:59:09;;;;;;;1.33;1.33;;;;;;;-9.50;88.29;99894.91;4932570;29;20044;-93
2024/01/12 02:01:35;;;;;;;1.40;1.40;;;;;;;-9.79;88.08;99901.59;4916688;29;20418;-92
2024/01/12 02:04:01;;;;;;;1.25;1.25;;;;;;;-9.60;89.36;99896.34;4919965;29;20040;-92
2024/01/12 02:06:27;;;;;;;1.30;1.30;;;;;;;-9.44;89.07;99898.25;4930156;29;20055;-92
2024/01/12 02:08:52;;;;;;;1.38;1.38;;;;;;;-9.54;88.79;99900.41;4920082;29;20024;-93
2024/01/12 02:11:18;;;;;;;1.30;1.30;;;;;;;-9.77;88.65;99905.28;4931551;29;20032;-92
2024/01/12 02:13:45;;;;;;;1.40;1.40;;;;;;;-9.36;89.12;99905.28;4939971;28;20033;-92
2024/01/12 02:16:11;;;;;;;1.40;1.40;;;;;;;-9.55;88.46;99915.00;4913261;29;20066;-92
2024/01/12 02:18:36;;;;;;;1.30;1.30;;;;;;;-9.65;88.94;99918.09;4935015;29;20068;-93
2024/01/12 02:21:02;;;;;;;1.45;1.45;;;;;;;-9.68;88.83;99911.59;4930928;29;20019;-92
2024/01/12 02:23:27;;;;;;;1.30;1.30;;;;;;;-9.58;89.06;99905.22;4900740;29;20068;-91
2024/01/12 02:25:54;;;;;;;1.40;1.40;;;;;;;-9.49;88.95;99901.91;4916275;29;20051;-92
2024/01/12 02:28:19;;;;;;;1.40;1.40;;;;;;;-9.41;88.05;99902.13;4916324;29;20035;-91
2024/01/12 02:30:46;;;;;;;1.40;1.40;;;;;;;-9.80;87.61;99890.34;4920613;29;20040;-92
2024/01/12 02:33:11;;;;;;;1.30;1.30;;;;;;;-9.69;88.90;99887.44;4926788;29;20068;-91
2024/01/12 02:35:37;;;;;;;1.30;1.30;;;;;;;-9.61;89.11;99889.34;4901239;29;20060;-91
2024/01/12 02:38:02;;;;;;;1.40;1.40;;;;;;;-9.62;88.74;99890.06;4930950;29;20032;-93
2024/01/12 02:40:28;;;;;;;1.35;1.35;;;;;;;-9.60;88.53;99888.59;4911508;29;20039;-93
2024/01/12 02:42:53;;;;;;;1.30;1.30;;;;;;;-9.59;89.12;99884.34;4926063;29;20036;-94
2024/01/12 02:45:21;;;;;;;1.20;1.20;;;;;;;-9.67;88.69;99897.97;4931097;29;20044;-94
2024/01/12 02:47:47;;;;;;;1.30;1.30;;;;;;;-9.80;88.22;99890.34;4947549;29;20044;-93
2024/01/12 02:50:12;;;;;;;1.23;1.23;;;;;;;-9.41;89.19;99885.72;4934160;29;20036;-92
2024/01/12 02:52:38;;;;;;;1.30;1.30;;;;;;;-9.70;87.82;99884.69;4914576;29;20293;-93
2024/01/12 02:55:05;;;;;;;1.27;1.27;;;;;;;-10.08;87.58;99876.53;4924173;29;20039;-95
2024/01/12 02:57:31;;;;;;;1.40;1.40;;;;;;;-10.20;88.17;99890.50;4915256;29;20029;-92
2024/01/12 02:59:56;;;;;;;1.30;1.30;;;;;;;-9.74;90.00;99890.19;4941189;29;20082;-92
2024/01/12 03:02:23;;;;;;;1.40;1.40;;;;;;;-9.77;88.70;99884.63;4918591;29;20040;-92
2024/01/12 03:04:49;;;;;;;1.27;1.27;;;;;;;-9.70;88.64;99876.94;4904779;29;20043;-92
2024/01/12 03:07:14;;;;;;;1.30;1.30;;;;;;;-9.84;88.89;99878.69;4924664;29;20040;-92
2024/01/12 03:09:40;;;;;;;1.40;1.40;;;;;;;-9.82;89.10;99887.59;4932595;29;20032;-92
2024/01/12 03:12:06;;;;;;;1.20;1.20;;;;;;;-10.04;87.62;99884.69;4922831;29;20032;-93
2024/01/12 03:14:31;;;;;;;1.30;1.30;;;;;;;-9.99;88.12;99891.34;4934664;29;20087;-93
2024/01/12 03:16:57;;;;;;;1.30;1.30;;;;;;;-9.96;87.75;99894.31;4917452;29;20091;-92
2024/01/12 03:19:22;;;;;;;1.40;1.40;;;;;;;-9.80;88.98;99885.19;4918478;29;20016;-93
2024/01/12 03:21:49;;;;;;;1.30;1.30;;;;;;;-9.54;88.54;99887.50;4920749;29;20096;-93
2024/01/12 03:24:15;;;;;;;1.30;1.30;;;;;;;-9.97;87.68;99890.78;4919036;29;20451;-92
2024/01/12 03:26:41;;;;;;;1.30;1.30;;;;;;;-10.08;88.34;99896.25;4914232;29;20494;-92
2024/01/12 03:29:06;;;;;;;1.30;1.30;;;;;;;-9.81;88.77;99896.25;4930828;29;20043;-93
2024/01/12 03:31:33;;;;;;;1.33;1.33;;;;;;;-9.71;88.64;99886.34;4899733;29;20032;-93
2024/01/12 03:33:58;;;;;;;1.40;1.40;;;;;;;-9.81;88.34;99893.66;4932764;29;20044;-93
2024/01/12 03:36:24;;;;;;;1.40;1.40;;;;;;;-10.01;87.77;99900.53;4922700;29;20036;-94
2024/01/12 03:38:53;;;;;;;1.27;1.27;;;;;;;-9.92;88.51;99909.44;4929588;29;20032;-93
2024/01/12 03:41:18;;;;;;;1.42;1.42;;;;;;;-9.74;88.64;99904.00;4913609;29;20036;-93
2024/01/12 03:43:45;;;;;;;1.40;1.40;;;;;;;-9.62;87.66;99902.06;4922964;29;20031;-93
2024/01/12 03:46:10;;;;;;;1.40;1.40;;;;;;;-9.89;86.85;99902.09;4928065;29;20047;-92
2024/01/12 03:48:36;;;;;;;1.35;1.35;;;;;;;-9.95;87.17;99896.16;4940382;29;20039;-92
2024/01/12 03:51:02;;;;;;;1.38;1.38;;;;;;;-9.94;88.57;99898.94;4927370;29;20028;-93
2024/01/12 03:53:28;;;;;;;1.30;1.30;;;;;;;-9.93;88.70;99902.44;4921169;29;20040;-92
2024/01/12 03:55:57;;;;;;;1.38;1.38;;;;;;;-9.97;88.26;99900.19;4898036;29;20028;-93
2024/01/12 03:58:23;;;;;;;1.20;1.20;;;;;;;-9.90;88.82;99905.41;4899878;29;20068;-93
2024/01/12 04:00:50;;;;;;;1.38;1.38;;;;;;;-9.82;88.81;99896.97;4915977;29;20040;-92
2024/01/12 04:03:16;;;;;;;1.40;1.40;;;;;;;-9.97;87.85;99905.34;4913443;29;20046;-93
2024/01/12 04:05:41;;;;;;;1.40;1.40;;;;;;;-10.14;87.47;99900.66;4902354;29;20083;-92
2024/01/12 04:08:07;;;;;;;1.30;1.30;;;;;;;-10.10;88.37;99901.25;4919589;29;20040;-93
2024/01/12 04:10:33;;;;;;;1.40;1.40;;;;;;;-9.91;88.73;99891.59;4923641;29;20051;-92
2024/01/12 04:12:59;;;;;;;1.40;1.40;;;;;;;-10.07;87.97;99896.44;4927689;29;20032;-92
2024/01/12 04:15:25;;;;;;;1.40;1.40;;;;;;;-10.08;88.13;99896.25;4925543;29;20188;-91
2024/01/12 04:17:50;;;;;;;1.40;1.40;;;;;;;-10.31;87.29;99901.09;4927560;29;20398;-94
2024/01/12 04:20:16;;;;;;;1.23;1.23;;;;;;;-10.14;88.80;99910.97;4928422;29;20070;-93
2024/01/12 04:22:42;;;;;;;1.38;1.38;;;;;;;-10.05;89.13;99903.50;4928010;29;20028;-94
2024/01/12 04:25:08;;;;;;;1.40;1.40;;;;;;;-9.83;88.37;99895.13;4917640;29;20048;-94
2024/01/12 04:27:33;;;;;;;1.40;1.40;;;;;;;-10.12;87.24;99904.34;4930633;29;20166;-93
2024/01/12 04:30:00;;;;;;;1.30;1.30;;;;;;;-9.86;87.52;99895.66;4927469;29;20019;-92
2024/01/12 04:32:26;;;;;;;1.23;1.23;;;;;;;-9.78;87.59;99899.19;4929180;29;20197;-92
2024/01/12 04:34:52;;;;;;;1.30;1.30;;;;;;;-9.89;87.47;99907.25;4910146;29;20045;-91
2024/01/12 04:37:19;;;;;;;1.30;1.30;;;;;;;-10.03;87.14;99907.16;4918753;29;20036;-92
2024/01/12 04:39:44;;;;;;;1.30;1.30;;;;;;;-10.05;86.79;99894.09;4923327;29;20039;-92
2024/01/12 04:42:10;;;;;;;1.35;1.35;;;;;;;-9.83;87.63;99895.13;4936838;29;20051;-93
2024/01/12 04:44:36;;;;;;;1.40;1.40;;;;;;;-9.99;88.14;99899.09;4918839;29;20040;-92
2024/01/12 04:47:06;;;;;;;1.30;1.30;;;;;;;-9.76;87.51;99899.41;4903604;29;20025;-93
2024/01/12 04:49:32;;;;;;;1.40;1.40;;;;;;;-10.08;87.47;99899.75;4918917;29;20068;-93
2024/01/12 04:51:58;;;;;;;1.40;1.40;;;;;;;-10.15;88.59;99910.06;4905631;29;20031;-94
2024/01/12 04:54:24;;;;;;;1.30;1.30;;;;;;;-10.16;88.35;99907.25;4913171;29;20040;-90
2024/01/12 04:56:51;;;;;;;1.30;1.30;;;;;;;-10.01;89.03;99903.13;4920157;29;20032;-93
2024/01/12 04:59:17;;;;;;;1.40;1.40;;;;;;;-10.26;87.36;99910.34;4914113;29;20044;-92
2024/01/12 05:01:44;;;;;;;1.40;1.40;;;;;;;-10.16;87.64;99915.00;4916739;29;20028;-93
2024/01/12 05:04:11;;;;;;;1.40;1.40;;;;;;;-10.21;87.21;99919.56;4887254;29;20123;-92
2024/01/12 05:06:36;;;;;;;1.38;1.38;;;;;;;-10.07;87.07;99922.25;4913208;29;20047;-93
2024/01/12 05:09:06;;;;;;;1.33;1.33;;;;;;;-9.88;87.45;99922.94;4897977;29;20032;-91
2024/01/12 05:11:32;;;;;;;1.30;1.30;;;;;;;-9.85;87.55;99922.41;4913359;29;20134;-91
2024/01/12 05:13:57;;;;;;;1.30;1.30;;;;;;;-9.98;88.10;99922.50;4897749;29;20051;-91
2024/01/12 05:16:23;;;;;;;1.30;1.30;;;;;;;-10.17;88.46;99924.41;4913895;29;20128;-92
2024/01/12 05:18:49;;;;;;;1.30;1.30;;;;;;;-10.35;87.59;99924.66;4931287;29;20040;-92
2024/01/12 05:21:17;;;;;;;1.20;1.20;;;;;;;-10.19;88.81;99918.13;4900125;29;20064;-92
2024/01/12 05:23:45;;;;;;;1.40;1.40;;;;;;;-10.41;88.28;99916.16;4914940;29;20039;-92
2024/01/12 05:26:15;;;;;;;1.40;1.40;;;;;;;-10.19;88.45;99923.28;4912668;29;20379;-92
2024/01/12 05:28:40;;;;;;;1.30;1.30;;;;;;;-10.17;87.78;99914.06;4915712;29;20029;-92
2024/01/12 05:31:09;;;;;;;1.30;1.30;;;;;;;-10.30;87.83;99913.28;4916581;29;20051;-92
2024/01/12 05:33:34;;;;;;;1.40;1.40;;;;;;;-10.32;88.25;99917.31;4900577;29;20024;-93
2024/01/12 05:36:00;;;;;;;1.30;1.30;;;;;;;-10.38;87.69;99929.44;4902045;29;20044;-93
2024/01/12 05:38:25;;;;;;;1.30;1.30;;;;;;;-10.26;88.12;99930.06;4901179;29;20039;-93
2024/01/12 05:40:51;;;;;;;1.33;1.33;;;;;;;-10.27;87.80;99933.38;4914437;29;20040;-92
2024/01/12 05:43:17;;;;;;;1.30;1.30;;;;;;;-10.17;88.01;99924.41;4914842;29;20036;-92
2024/01/12 05:45:43;;;;;;;1.30;1.30;;;;;;;-10.50;87.71;99927.84;4915412;29;20175;-92
2024/01/12 05:48:10;;;;;;;1.40;1.40;;;;;;;-10.39;88.81;99920.78;4907576;29;20041;-93
2024/01/12 05:50:35;;;;;;;1.30;1.30;;;;;;;-10.36;89.32;99923.72;4896574;29;20056;-92
2024/01/12 05:53:01;;;;;;;1.40;1.40;;;;;;;-10.47;87.85;99924.03;4917829;29;20036;-91
2024/01/12 05:55:26;;;;;;;1.30;1.30;;;;;;;-10.36;88.64;99922.81;4933071;29;20043;-92
2024/01/12 05:57:52;;;;;;;1.30;1.30;;;;;;;-10.50;87.95;99922.69;4903640;29;20047;-93
2024/01/12 06:00:17;;;;;;;1.30;1.30;;;;;;;-10.44;88.06;99923.50;4930414;29;20086;-90
2024/01/12 06:02:43;;;;;;;1.40;1.40;;;;;;;-10.40;88.51;99920.56;4897669;29;20115;-90
2024/01/12 06:05:08;;;;;;;1.30;1.30;;;;;;;-10.58;88.14;99936.28;4901443;29;20040;-91
2024/01/12 06:07:34;;;;;;;1.33;1.33;;;;;;;-10.53;88.83;99925.81;4921546;29;20040;-93
2024/01/12 06:10:02;;;;;;;1.30;1.30;;;;;;;-10.45;88.32;99922.56;4930411;29;20244;-93
2024/01/12 06:12:28;;;;;;;1.40;1.40;;;;;;;-10.33;87.63;99922.31;4917649;29;20060;-93
2024/01/12 06:14:54;;;;;;;1.40;1.40;;;;;;;-10.30;87.65;99918.44;4913802;29;20032;-92
2024/01/12 06:17:19;;;;;;;1.30;1.30;;;;;;;-10.29;88.29;99917.72;4948474;29;20036;-92
2024/01/12 06:19:45;;;;;;;1.40;1.40;;;;;;;-10.43;87.23;99921.13;4914087;29;20055;-92
2024/01/12 06:22:10;;;;;;;1.35;1.35;;;;;;;-10.36;88.28;99915.06;4921234;29;20028;-94
2024/01/12 06:24:36;;;;;;;1.40;1.40;;;;;;;-10.47;88.06;99912.78;4924672;29;20091;-95
2024/01/12 06:27:02;;;;;;;1.40;1.40;;;;;;;-10.34;88.25;99908.47;4905981;29;20032;-93
2024/01/12 06:29:28;;;;;;;1.40;1.40;;;;;;;-10.48;88.07;99916.09;4922345;29;20036;-94
2024/01/12 06:31:53;;;;;;;1.30;1.30;;;;;;;-10.49;88.53;99907.44;4916058;29;20058;-92
2024/01/12 06:34:21;;;;;;;1.38;1.38;;;;;;;-10.29;88.77;99914.22;4913211;29;20072;-93
2024/01/12 06:36:47;;;;;;;1.40;1.40;;;;;;;-10.35;87.90;99914.34;4903668;29;20406;-94
2024/01/12 06:39:12;;;;;;;1.40;1.40;;;;;;;-10.43;88.34;99912.47;4918548;29;20036;-94
2024/01/12 06:41:46;;;;;;;1.40;1.40;;;;;;;-10.44;88.33;99913.19;4931249;29;20032;-93
2024/01/12 06:44:11;;;;;;;1.40;1.40;;;;;;;-10.39;88.36;99913.06;4898811;29;20045;-93
2024/01/12 06:46:43;;;;;;;1.40;1.40;;;;;;;-10.33;88.74;99909.41;4925524;29;20047;-92
2024/01/12 06:49:09;;;;;;;1.30;1.30;;;;;;;-10.42;87.76;99907.47;4937471;29;20534;-89
2024/01/12 06:51:35;;;;;;;1.40;1.40;;;;;;;-10.27;88.11;99912.75;4922711;29;20024;-90
2024/01/12 06:54:00;;;;;;;1.30;1.30;;;;;;;-10.45;87.36;99916.47;4937730;29;20090;-91
2024/01/12 06:56:26;;;;;;;1.30;1.30;;;;;;;-10.53;87.54;99925.81;4891096;29;20045;-90
2024/01/12 06:58:51;;;;;;;1.40;1.40;;;;;;;-10.51;87.85;99926.94;4905414;29;20048;-94
2024/01/12 07:01:20;;;;;;;1.40;1.40;;;;;;;-10.63;87.51;99922.78;4929376;29;20044;-92
2024/01/12 07:03:47;;;;;;;1.40;1.40;;;;;;;-10.68;88.36;99929.94;4918390;29;20158;-92
2024/01/12 07:06:13;;;;;;;1.30;1.30;;;;;;;-10.67;88.43;99918.88;4917478;29;20054;-93
2024/01/12 07:08:39;;;;;;;1.40;1.40;;;;;;;-10.46;88.47;99914.63;4928389;29;20088;-92
2024/01/12 07:11:07;;;;;;;1.30;1.30;;;;;;;-10.33;88.04;99917.13;4902112;29;20044;-92
2024/01/12 07:13:34;;;;;;;1.40;1.40;;;;;;;-10.60;86.54;99918.94;4919920;29;20984;-93
2024/01/12 07:16:00;;;;;;;1.40;1.40;;;;;;;-10.35;87.77;99920.47;4919834;29;20028;-93
2024/01/12 07:18:25;;;;;;;1.30;1.30;;;;;;;-10.22;88.05;99925.47;4919778;29;20048;-93
2024/01/12 07:20:51;;;;;;;1.30;1.30;;;;;;;-10.02;88.13;99930.59;4903653;29;20032;-91
2024/01/12 07:23:16;;;;;;;1.33;1.33;;;;;;;-10.03;87.50;99939.06;4911863;29;20051;-93
2024/01/12 07:25:43;;;;;;;;;;;;;;;-10.29;85.95;99929.72;4920635;29;20056;-94
2024/01/12 07:28:10;;;;;;;;;;;;;;;-9.97;86.53;99945.00;4922100;29;19914;-92
2024/01/12 07:30:36;;;;;;;1.40;1.40;;;;;;;-9.96;86.15;99943.38;4938013;29;19922;-92
2024/01/12 07:33:01;;;;;;;1.30;1.30;;;;;;;-10.00;85.98;99941.13;4921785;29;20039;-92
2024/01/12 07:35:27;;;;;;;1.33;1.33;;;;;;;-10.01;86.32;99942.78;4920935;29;20036;-93
2024/01/12 07:37:52;;;;;;;1.40;1.40;;;;;;;-9.88;86.74;99943.59;4918524;29;20040;-94
2024/01/12 07:40:18;;;;;;;1.30;1.30;;;;;;;-9.91;86.50;99950.03;4928610;29;20472;-94
2024/01/12 07:42:44;;;;;;;1.38;1.38;;;;;;;-10.00;86.34;99946.28;4935384;29;20051;-93
2024/01/12 07:45:11;;;;;;;1.40;1.40;;;;;;;-9.79;87.07;99937.75;4901895;29;20036;-93
2024/01/12 07:47:37;;;;;;;1.30;1.30;;;;;;;-9.76;87.65;99939.06;4929316;29;20051;-94
2024/01/12 07:50:03;;;;;;;1.30;1.30;;;;;;;-9.81;86.82;99950.47;4937336;29;20044;-93
2024/01/12 07:52:34;;;;;;;1.33;1.33;;;;;;;-9.62;86.62;99952.06;4933762;29;20044;-94
2024/01/12 07:54:59;;;;;;;1.35;1.35;;;;;;;-9.66;86.09;99954.97;4921782;29;20038;-95
2024/01/12 07:57:26;;;;;;;1.40;1.40;;;;;;;-9.78;85.56;99961.16;4902913;29;20040;-93
2024/01/12 07:59:55;;;;;;;1.13;1.13;;;;;;;-9.65;86.46;99954.25;4900664;29;20535;-94
2024/01/12 08:02:21;;;;;;;1.20;1.20;;;;;;;-9.64;85.67;99957.75;4919498;29;20179;-92
2024/01/12 08:04:50;;;;;;;1.30;1.30;;;;;;;-9.43;85.15;99962.13;4921106;29;20055;-95
2024/01/12 08:07:16;;;;;;;1.45;1.45;;;;;;;-9.47;85.79;99957.28;4922343;29;20035;-94
2024/01/12 08:09:44;;;;;;;1.40;1.40;;;;;;;-9.33;85.71;99954.78;4909024;29;20040;-93
2024/01/12 08:12:10;;;;;;;1.30;1.30;;;;;;;-9.22;85.35;99963.88;4926576;29;20056;-93
2024/01/12 08:14:36;;;;;;;1.30;1.30;;;;;;;-9.24;85.02;99971.44;4938212;29;20459;-93
2024/01/12 08:17:08;;;;;;;1.30;1.30;;;;;;;-9.18;84.77;99972.19;4909946;29;20054;-92
2024/01/12 08:19:34;;;;;;;1.40;1.40;;;;;;;-8.94;84.99;99981.16;4924065;29;20068;-93
2024/01/12 08:22:00;;;;;;;1.45;1.45;;;;;;;-8.85;84.79;99972.88;4908491;29;20149;-93
2024/01/12 08:24:25;;;;;;;1.40;1.40;;;;;;;-8.27;83.80;99972.19;4908944;29;20105;-93
2024/01/12 08:26:51;;;;;;;1.30;1.30;;;;;;;-7.61;82.37;99977.50;4906749;29;20052;-95
2024/01/12 08:29:19;;;;;;;1.38;1.38;;;;;;;-6.84;81.67;99965.75;4924750;29;20036;-92
2024/01/12 08:31:45;;;;;;;1.30;1.30;;;;;;;-6.53;80.48;99965.00;4925104;29;20046;-94
2024/01/12 08:34:10;;;;;;;1.30;1.30;;;;;;;-6.24;79.89;99968.31;4923980;29;20040;-92
2024/01/12 08:36:36;;;;;;;1.30;1.30;;;;;;;-6.08;78.74;99974.53;4931864;29;20044;-93
2024/01/12 08:39:04;;;;;;;1.30;1.30;;;;;;;-6.20;78.92;99978.31;4930845;29;20064;-94
2024/01/12 08:41:30;;;;;;;1.27;1.27;;;;;;;-6.35;78.91;99979.19;4930188;29;20104;-93
2024/01/12 08:43:57;;;;;;;1.30;1.30;;;;;;;-5.47;80.52;99968.31;4923643;29;20036;-94
2024/01/12 08:46:23;;;;;;;1.30;1.30;;;;;;;-5.28;78.96;99978.16;4913719;29;20040;-93
2024/01/12 08:48:49;;;;;;;1.30;1.30;;;;;;;-5.24;76.79;99975.16;4918023;29;20122;-94
2024/01/12 08:51:16;;;;;;;1.17;1.17;;;;;;;-5.40;79.45;99982.03;4951907;28;20059;-94
2024/01/12 08:53:41;;;;;;;1.30;1.30;;;;;;;-5.34;79.31;99982.69;4928835;29;20032;-92
2024/01/12 08:56:07;;;;;;;1.30;1.30;;;;;;;-5.22;79.63;99973.66;4927802;28;20037;-92
2024/01/12 08:58:33;;;;;;;1.30;1.30;;;;;;;-4.75;77.49;99963.19;4938858;29;20060;-93
2024/01/12 09:00:59;;;;;;;1.30;1.30;;;;;;;-4.61;78.38;99979.38;4921921;29;20038;-94
2024/01/12 09:03:25;;;;;;;1.30;1.30;;;;;;;-3.78;77.31;99966.56;4928814;29;20025;-93
2024/01/12 09:05:51;;;;;;;1.30;1.30;;;;;;;-3.70;76.47;99975.16;4933837;29;20036;-93
2024/01/12 09:08:17;;;;;;;1.30;1.30;;;;;;;-3.08;76.53;99975.50;4938715;28;20136;-92
2024/01/12 09:10:43;;;;;;;1.27;1.27;;;;;;;-2.69;76.64;99973.38;4935864;29;20023;-92
2024/01/12 09:42:51;;;;;;;1.17;1.17;;;;;;;-2.46;72.59;99978.28;5526418;23;20055;-93
2024/01/12 09:45:20;;;;;;;1.20;1.20;;;;;;;-1.63;74.39;99965.47;4940289;29;20036;-91
2024/01/12 09:47:46;;;;;;;1.20;1.20;;;;;;;-1.74;73.29;99968.75;4962568;28;20031;-95
2024/01/12 09:50:12;;;;;;;1.13;1.13;;;;;;;-1.25;73.99;99963.88;4943965;28;20047;-95
2024/01/12 09:52:38;;;;;;;1.20;1.20;;;;;;;-0.72;69.79;99957.50;4946553;29;20503;-93
2024/01/12 09:55:07;;;;;;;1.08;1.08;;;;;;;-1.50;71.37;99965.88;4939783;29;20044;-91
2024/01/12 09:57:33;;;;;;;1.20;1.20;;;;;;;-1.16;69.15;99964.75;4944876;29;20040;-94
2024/01/12 10:00:01;;;;;;;1.20;1.20;;;;;;;0.00;67.83;99951.00;4940596;29;20475;-94
2024/01/12 10:02:34;;;;;;;1.10;1.10;;;;;;;-0.95;66.99;99962.34;4948741;29;20106;-93
2024/01/12 10:05:00;;;;;;;1.10;1.10;;;;;;;-0.89;69.84;99955.97;4939696;29;20044;-94
2024/01/12 10:07:25;;;;;;;1.20;1.20;;;;;;;-0.63;65.06;99949.59;4939781;29;20127;-94
2024/01/12 10:09:52;;;;;;;1.20;1.20;;;;;;;-1.17;67.81;99959.38;4941857;29;20043;-96
2024/01/12 10:12:18;;;;;;;1.20;1.20;;;;;;;-1.62;71.07;99967.34;4932089;29;20177;-95
2024/01/12 10:14:44;;;;;;;1.20;1.20;;;;;;;-1.65;69.94;99961.78;4919868;29;20047;-94
2024/01/12 10:17:11;;;;;;;1.10;1.10;;;;;;;-1.19;69.92;99963.56;4933293;29;20087;-94
2024/01/12 10:19:36;;;;;;;1.20;1.20;;;;;;;-1.29;69.79;99961.78;4922308;29;20399;-93
2024/01/12 10:22:03;;;;;;;1.20;1.20;;;;;;;-1.17;68.53;99965.53;4920694;29;20040;-93
2024/01/12 10:24:30;;;;;;;1.27;1.27;;;;;;;-0.31;68.52;99953.47;4935350;29;20043;-93
2024/01/12 10:27:00;;;;;;;1.20;1.20;;;;;;;-1.33;69.31;99952.72;4923146;29;20063;-94
2024/01/12 10:29:26;;;;;;;1.10;1.10;;;;;;;-0.85;69.41;99955.47;4936157;29;20127;-94
2024/01/12 10:31:52;;;;;;;1.10;1.10;;;;;;;-0.47;67.02;99938.81;4918259;29;20060;-94
2024/01/12 10:34:19;;;;;;;1.20;1.20;;;;;;;-0.50;67.84;99928.97;4935374;29;20055;-93
2024/01/12 10:36:49;;;;;;;1.20;1.20;;;;;;;0.40;66.24;99923.94;4932057;29;20095;-94
2024/01/12 10:39:18;;;;;;;1.20;1.20;;;;;;;-0.09;67.14;99924.84;4932214;29;20040;-91
2024/01/12 10:41:46;;;;;;;1.20;1.20;;;;;;;-0.47;66.59;99920.47;4939669;29;20047;-88
2024/01/12 10:44:15;;;;;;;1.20;1.20;;;;;;;-0.08;66.86;99925.78;4936886;29;20062;-92
2024/01/12 10:46:54;;;;;;;1.20;1.20;;;;;;;-1.23;69.05;99922.16;4930077;29;20047;-94
2024/01/12 10:49:25;;;;;;;1.20;1.20;;;;;;;0.92;64.38;99903.91;4927037;29;20075;-93
2024/01/12 10:52:00;;;;;;;1.20;1.20;;;;;;;-0.28;66.26;99913.50;4933082;29;20043;-95
2024/01/12 10:54:29;;;;;;;1.20;1.20;;;;;;;0.81;64.02;99900.34;4936198;29;20044;-95
2024/01/12 10:56:56;;;;;;;1.20;1.20;;;;;;;1.32;63.22;99902.03;4927183;29;20048;-94
2024/01/12 10:59:25;;;;;;;1.10;1.10;;;;;;;1.86;60.87;99904.75;4931797;29;20103;-91
2024/01/12 11:02:00;;;;;;;1.20;1.20;;;;;;;0.64;63.36;99912.03;4936783;29;20454;-90
2024/01/12 11:04:27;;;;;;;1.17;1.17;;;;;;;0.90;62.22;99908.09;4949001;29;20087;-89
2024/01/12 11:06:56;;;;;;;1.20;1.20;;;;;;;1.92;60.87;99903.56;4953806;29;20050;-94
2024/01/12 11:09:22;;;;;;;1.17;1.17;;;;;;;2.13;59.03;99899.09;4933254;29;20035;-94
2024/01/12 11:12:01;;;;;;;1.13;1.13;;;;;;;3.53;57.73;99888.06;4937591;29;20040;-95
2024/01/12 11:14:27;;;;;;;1.20;1.20;;;;;;;3.63;55.08;99905.50;4931312;29;20040;-94
2024/01/12 11:16:54;;;;;;;1.10;1.10;;;;;;;4.41;53.68;99902.41;4935239;29;20031;-94
2024/01/12 11:19:20;;;;;;;1.10;1.10;;;;;;;4.50;51.30;99887.22;4941929;28;20660;-93
2024/01/12 11:21:48;;;;;;;1.10;1.10;;;;;;;4.17;53.55;99889.28;4941250;29;20060;-89
2024/01/12 11:24:17;;;;;;;1.20;1.20;;;;;;;4.61;53.08;99878.34;4933739;29;20036;-92
2024/01/12 11:26:43;;;;;;;1.10;1.10;;;;;;;4.33;52.74;99884.31;4950558;29;20032;-91
2024/01/12 11:29:17;;;;;;;1.10;1.10;;;;;;;3.62;52.48;99877.31;4930916;29;20043;-93
2024/01/12 11:31:54;;;;;;;1.00;1.00;;;;;;;4.58;53.55;99873.75;4940594;29;20043;-92
2024/01/12 11:34:22;;;;;;;1.10;1.10;;;;;;;6.39;48.61;99863.03;4943623;29;20050;-91
2024/01/12 11:37:00;;;;;;;1.05;1.05;;;;;;;6.51;47.59;99854.03;4941555;29;20035;-90
2024/01/12 11:39:32;;;;;;;1.10;1.10;;;;;;;5.14;46.98;99854.72;4937858;29;20048;-94
2024/01/12 11:42:03;;;;;;;1.10;1.10;;;;;;;4.17;51.91;99870.81;4938192;29;20039;-90
2024/01/12 11:44:35;;;;;;;1.00;1.00;;;;;;;3.24;55.66;99863.88;4941285;29;20047;-94
2024/01/12 11:47:09;;;;;;;1.10;1.10;;;;;;;1.84;59.24;99875.69;4935190;29;20046;-92
2024/01/12 11:49:36;;;;;;;1.10;1.10;;;;;;;3.06;57.21;99855.47;4940168;29;20056;-89
2024/01/12 11:52:04;;;;;;;1.20;1.20;;;;;;;4.40;53.77;99853.03;4946344;29;20024;-88
2024/01/12 11:54:30;;;;;;;1.10;1.10;;;;;;;5.07;51.16;99855.09;4947945;29;20088;-90
2024/01/12 11:56:56;;;;;;;1.08;1.08;;;;;;;3.31;54.25;99856.53;4945821;29;20035;-95
2024/01/12 11:59:23;;;;;;;1.10;1.10;;;;;;;2.71;56.53;99866.84;4940637;29;20035;-91